sensor_id;sensor_type;location;lat;lon;timestamp;P1;durP1;ratioP1;P2;durP2;ratioP2
60710;SDS011;46554;48.138;8.420;2023-07-29T00:02:13;0.00;;;0.00;;
60710;SDS011;46554;48.138;8.420;2023-07-29T00:04:38;0.10;;;0.00;;
60710;SDS011;46554;48.138;8.420;2023-07-29T00:07:03;0.32;;;0.32;;
60710;SDS011;46554;48.138;8.420;2023-07-29T00:09:31;0.95;;;0.85;;
60710;SDS011;46554;48.138;8.420;2023-07-29T00:11:56;0.00;;;0.00;;
60710;SDS011;46554;48.138;8.420;2023-07-29T00:14:22;0.00;;;0.00;;
60710;SDS011;46554;48.138;8.420;2023-07-29T00:16:47;0.00;;;0.00;;
60710;SDS011;46554;48.138;8.420;2023-07-29T00:19:12;0.32;;;0.32;;
60710;SDS011;46554;48.138;8.420;2023-07-29T00:21:40;0.00;;;0.00;;
60710;SDS011;46554;48.138;8.420;2023-07-29T00:24:06;0.00;;;0.00;;
60710;SDS011;46554;48.138;8.420;2023-07-29T00:26:31;1.05;;;0.28;;
60710;SDS011;46554;48.138;8.420;2023-07-29T00:28:57;0.55;;;0.10;;
60710;SDS011;46554;48.138;8.420;2023-07-29T00:31:23;0.00;;;0.00;;
60710;SDS011;46554;48.138;8.420;2023-07-29T00:33:48;0.00;;;0.00;;
60710;SDS011;46554;48.138;8.420;2023-07-29T00:36:14;0.00;;;0.00;;
60710;SDS011;46554;48.138;8.420;2023-07-29T00:38:41;0.38;;;0.38;;
60710;SDS011;46554;48.138;8.420;2023-07-29T00:41:18;0.22;;;0.08;;
60710;SDS011;46554;48.138;8.420;2023-07-29T00:43:43;0.52;;;0.30;;
60710;SDS011;46554;48.138;8.420;2023-07-29T00:46:11;0.28;;;0.28;;
60710;SDS011;46554;48.138;8.420;2023-07-29T00:48:39;0.10;;;0.10;;
60710;SDS011;46554;48.138;8.420;2023-07-29T00:51:04;0.00;;;0.00;;
60710;SDS011;46554;48.138;8.420;2023-07-29T00:53:30;0.00;;;0.00;;
60710;SDS011;46554;48.138;8.420;2023-07-29T00:55:56;0.00;;;0.00;;
60710;SDS011;46554;48.138;8.420;2023-07-29T00:58:21;0.00;;;0.00;;
60710;SDS011;46554;48.138;8.420;2023-07-29T01:00:47;0.43;;;0.30;;
60710;SDS011;46554;48.138;8.420;2023-07-29T01:03:12;0.00;;;0.00;;
60710;SDS011;46554;48.138;8.420;2023-07-29T01:08:21;1.45;;;0.40;;
60710;SDS011;46554;48.138;8.420;2023-07-29T01:10:58;1.67;;;0.47;;
60710;SDS011;46554;48.138;8.420;2023-07-29T01:13:33;0.00;;;0.00;;
60710;SDS011;46554;48.138;8.420;2023-07-29T01:16:15;0.05;;;0.05;;
60710;SDS011;46554;48.138;8.420;2023-07-29T01:18:43;0.10;;;0.10;;
60710;SDS011;46554;48.138;8.420;2023-07-29T01:21:11;0.00;;;0.00;;
60710;SDS011;46554;48.138;8.420;2023-07-29T01:23:36;0.57;;;0.57;;
60710;SDS011;46554;48.138;8.420;2023-07-29T01:26:02;0.10;;;0.10;;
60710;SDS011;46554;48.138;8.420;2023-07-29T01:28:30;0.10;;;0.10;;
60710;SDS011;46554;48.138;8.420;2023-07-29T01:31:19;0.00;;;0.00;;
60710;SDS011;46554;48.138;8.420;2023-07-29T01:36:40;0.00;;;0.00;;
60710;SDS011;46554;48.138;8.420;2023-07-29T01:39:07;0.10;;;0.10;;
60710;SDS011;46554;48.138;8.420;2023-07-29T01:41:33;0.00;;;0.00;;
60710;SDS011;46554;48.138;8.420;2023-07-29T01:43:59;0.15;;;0.15;;
60710;SDS011;46554;48.138;8.420;2023-07-29T01:46:25;0.00;;;0.00;;
60710;SDS011;46554;48.138;8.420;2023-07-29T01:48:50;0.00;;;0.00;;
60710;SDS011;46554;48.138;8.420;2023-07-29T01:51:15;0.80;;;0.32;;
60710;SDS011;46554;48.138;8.420;2023-07-29T01:53:41;0.10;;;0.10;;
60710;SDS011;46554;48.138;8.420;2023-07-29T01:56:07;0.35;;;0.32;;
60710;SDS011;46554;48.138;8.420;2023-07-29T01:58:32;0.35;;;0.20;;
60710;SDS011;46554;48.138;8.420;2023-07-29T02:01:00;0.00;;;0.00;;
60710;SDS011;46554;48.138;8.420;2023-07-29T02:03:27;0.35;;;0.35;;
60710;SDS011;46554;48.138;8.420;2023-07-29T02:05:55;0.38;;;0.38;;
60710;SDS011;46554;48.138;8.420;2023-07-29T02:08:20;0.10;;;0.10;;
60710;SDS011;46554;48.138;8.420;2023-07-29T02:10:48;0.10;;;0.10;;
60710;SDS011;46554;48.138;8.420;2023-07-29T02:13:15;0.13;;;0.13;;
60710;SDS011;46554;48.138;8.420;2023-07-29T02:15:41;0.10;;;0.10;;
60710;SDS011;46554;48.138;8.420;2023-07-29T02:18:09;0.00;;;0.00;;
60710;SDS011;46554;48.138;8.420;2023-07-29T02:20:36;0.70;;;0.32;;
60710;SDS011;46554;48.138;8.420;2023-07-29T02:23:04;0.35;;;0.35;;
60710;SDS011;46554;48.138;8.420;2023-07-29T02:25:30;0.00;;;0.00;;
60710;SDS011;46554;48.138;8.420;2023-07-29T02:28:02;0.35;;;0.35;;
60710;SDS011;46554;48.138;8.420;2023-07-29T02:30:28;0.88;;;0.38;;
60710;SDS011;46554;48.138;8.420;2023-07-29T02:32:54;0.10;;;0.10;;
60710;SDS011;46554;48.138;8.420;2023-07-29T02:35:19;0.10;;;0.10;;
60710;SDS011;46554;48.138;8.420;2023-07-29T02:37:44;0.55;;;0.38;;
60710;SDS011;46554;48.138;8.420;2023-07-29T02:40:10;10.45;;;0.30;;
60710;SDS011;46554;48.138;8.420;2023-07-29T02:42:36;0.10;;;0.10;;
60710;SDS011;46554;48.138;8.420;2023-07-29T02:45:03;0.20;;;0.20;;
60710;SDS011;46554;48.138;8.420;2023-07-29T02:47:29;0.00;;;0.00;;
60710;SDS011;46554;48.138;8.420;2023-07-29T02:49:54;0.00;;;0.00;;
60710;SDS011;46554;48.138;8.420;2023-07-29T02:52:20;0.32;;;0.10;;
60710;SDS011;46554;48.138;8.420;2023-07-29T02:54:46;0.00;;;0.00;;
60710;SDS011;46554;48.138;8.420;2023-07-29T02:57:16;0.20;;;0.10;;
60710;SDS011;46554;48.138;8.420;2023-07-29T02:59:42;0.00;;;0.00;;
60710;SDS011;46554;48.138;8.420;2023-07-29T03:02:07;0.28;;;0.25;;
60710;SDS011;46554;48.138;8.420;2023-07-29T03:04:33;0.10;;;0.10;;
60710;SDS011;46554;48.138;8.420;2023-07-29T03:07:01;0.30;;;0.30;;
60710;SDS011;46554;48.138;8.420;2023-07-29T03:09:27;0.13;;;0.13;;
60710;SDS011;46554;48.138;8.420;2023-07-29T03:11:55;0.47;;;0.43;;
60710;SDS011;46554;48.138;8.420;2023-07-29T03:14:20;0.10;;;0.10;;
60710;SDS011;46554;48.138;8.420;2023-07-29T03:16:46;0.20;;;0.20;;
60710;SDS011;46554;48.138;8.420;2023-07-29T03:19:12;0.00;;;0.00;;
60710;SDS011;46554;48.138;8.420;2023-07-29T03:21:42;0.17;;;0.15;;
60710;SDS011;46554;48.138;8.420;2023-07-29T03:24:07;0.10;;;0.10;;
60710;SDS011;46554;48.138;8.420;2023-07-29T03:26:35;0.10;;;0.10;;
60710;SDS011;46554;48.138;8.420;2023-07-29T03:29:00;0.00;;;0.00;;
60710;SDS011;46554;48.138;8.420;2023-07-29T03:31:26;0.08;;;0.08;;
60710;SDS011;46554;48.138;8.420;2023-07-29T03:33:51;0.10;;;0.10;;
60710;SDS011;46554;48.138;8.420;2023-07-29T03:36:17;0.00;;;0.00;;
60710;SDS011;46554;48.138;8.420;2023-07-29T03:38:42;0.28;;;0.28;;
60710;SDS011;46554;48.138;8.420;2023-07-29T03:41:10;0.05;;;0.05;;
60710;SDS011;46554;48.138;8.420;2023-07-29T03:43:36;0.43;;;0.32;;
60710;SDS011;46554;48.138;8.420;2023-07-29T03:46:01;0.30;;;0.30;;
60710;SDS011;46554;48.138;8.420;2023-07-29T03:48:26;0.25;;;0.13;;
60710;SDS011;46554;48.138;8.420;2023-07-29T03:50:55;0.35;;;0.30;;
60710;SDS011;46554;48.138;8.420;2023-07-29T03:53:20;0.05;;;0.05;;
60710;SDS011;46554;48.138;8.420;2023-07-29T03:55:45;0.15;;;0.15;;
60710;SDS011;46554;48.138;8.420;2023-07-29T03:58:11;0.20;;;0.20;;
60710;SDS011;46554;48.138;8.420;2023-07-29T04:00:37;0.10;;;0.10;;
60710;SDS011;46554;48.138;8.420;2023-07-29T04:03:05;0.00;;;0.00;;
60710;SDS011;46554;48.138;8.420;2023-07-29T04:05:30;0.45;;;0.20;;
60710;SDS011;46554;48.138;8.420;2023-07-29T04:07:55;0.30;;;0.30;;
60710;SDS011;46554;48.138;8.420;2023-07-29T04:10:23;0.20;;;0.10;;
60710;SDS011;46554;48.138;8.420;2023-07-29T04:12:51;0.00;;;0.00;;
60710;SDS011;46554;48.138;8.420;2023-07-29T04:15:16;0.10;;;0.10;;
60710;SDS011;46554;48.138;8.420;2023-07-29T04:17:42;0.00;;;0.00;;
60710;SDS011;46554;48.138;8.420;2023-07-29T04:20:07;0.20;;;0.17;;
60710;SDS011;46554;48.138;8.420;2023-07-29T04:22:35;0.00;;;0.00;;
60710;SDS011;46554;48.138;8.420;2023-07-29T04:25:00;0.00;;;0.00;;
60710;SDS011;46554;48.138;8.420;2023-07-29T04:27:25;0.17;;;0.17;;
60710;SDS011;46554;48.138;8.420;2023-07-29T04:29:51;0.00;;;0.00;;
60710;SDS011;46554;48.138;8.420;2023-07-29T04:32:16;0.10;;;0.10;;
60710;SDS011;46554;48.138;8.420;2023-07-29T04:34:41;0.10;;;0.10;;
60710;SDS011;46554;48.138;8.420;2023-07-29T04:37:07;0.40;;;0.40;;
60710;SDS011;46554;48.138;8.420;2023-07-29T04:39:34;0.00;;;0.00;;
60710;SDS011;46554;48.138;8.420;2023-07-29T04:42:00;0.28;;;0.28;;
60710;SDS011;46554;48.138;8.420;2023-07-29T04:44:30;0.17;;;0.17;;
60710;SDS011;46554;48.138;8.420;2023-07-29T04:46:56;0.00;;;0.00;;
60710;SDS011;46554;48.138;8.420;2023-07-29T04:49:21;0.20;;;0.20;;
60710;SDS011;46554;48.138;8.420;2023-07-29T04:51:49;0.30;;;0.28;;
60710;SDS011;46554;48.138;8.420;2023-07-29T04:54:14;0.05;;;0.05;;
60710;SDS011;46554;48.138;8.420;2023-07-29T04:56:40;0.10;;;0.10;;
60710;SDS011;46554;48.138;8.420;2023-07-29T04:59:05;0.13;;;0.13;;
60710;SDS011;46554;48.138;8.420;2023-07-29T05:01:33;0.20;;;0.20;;
60710;SDS011;46554;48.138;8.420;2023-07-29T05:03:59;0.35;;;0.13;;
60710;SDS011;46554;48.138;8.420;2023-07-29T05:06:24;0.20;;;0.17;;
60710;SDS011;46554;48.138;8.420;2023-07-29T05:08:52;0.47;;;0.45;;
60710;SDS011;46554;48.138;8.420;2023-07-29T05:11:17;0.45;;;0.20;;
60710;SDS011;46554;48.138;8.420;2023-07-29T05:13:43;0.10;;;0.10;;
60710;SDS011;46554;48.138;8.420;2023-07-29T05:16:09;0.30;;;0.30;;
60710;SDS011;46554;48.138;8.420;2023-07-29T05:18:34;0.20;;;0.20;;
60710;SDS011;46554;48.138;8.420;2023-07-29T05:21:02;1.25;;;0.17;;
60710;SDS011;46554;48.138;8.420;2023-07-29T05:23:28;0.30;;;0.30;;
60710;SDS011;46554;48.138;8.420;2023-07-29T05:25:53;0.30;;;0.30;;
60710;SDS011;46554;48.138;8.420;2023-07-29T05:28:19;0.30;;;0.30;;
60710;SDS011;46554;48.138;8.420;2023-07-29T05:30:44;0.35;;;0.35;;
60710;SDS011;46554;48.138;8.420;2023-07-29T05:33:09;0.30;;;0.30;;
60710;SDS011;46554;48.138;8.420;2023-07-29T05:35:35;0.38;;;0.20;;
60710;SDS011;46554;48.138;8.420;2023-07-29T05:38:03;0.28;;;0.25;;
60710;SDS011;46554;48.138;8.420;2023-07-29T05:40:34;0.25;;;0.25;;
60710;SDS011;46554;48.138;8.420;2023-07-29T05:43:00;0.43;;;0.43;;
60710;SDS011;46554;48.138;8.420;2023-07-29T05:45:27;0.05;;;0.05;;
60710;SDS011;46554;48.138;8.420;2023-07-29T05:47:56;0.30;;;0.30;;
60710;SDS011;46554;48.138;8.420;2023-07-29T05:50:21;0.40;;;0.40;;
60710;SDS011;46554;48.138;8.420;2023-07-29T05:52:49;0.43;;;0.43;;
60710;SDS011;46554;48.138;8.420;2023-07-29T05:55:14;0.20;;;0.20;;
60710;SDS011;46554;48.138;8.420;2023-07-29T05:57:42;0.30;;;0.30;;
60710;SDS011;46554;48.138;8.420;2023-07-29T06:00:08;0.40;;;0.40;;
60710;SDS011;46554;48.138;8.420;2023-07-29T06:02:34;0.40;;;0.40;;
60710;SDS011;46554;48.138;8.420;2023-07-29T06:05:01;1.35;;;0.68;;
60710;SDS011;46554;48.138;8.420;2023-07-29T06:07:31;0.25;;;0.25;;
60710;SDS011;46554;48.138;8.420;2023-07-29T06:13:08;0.85;;;0.45;;
60710;SDS011;46554;48.138;8.420;2023-07-29T06:15:34;0.88;;;0.88;;
60710;SDS011;46554;48.138;8.420;2023-07-29T06:18:00;0.10;;;0.10;;
60710;SDS011;46554;48.138;8.420;2023-07-29T06:20:25;0.28;;;0.28;;
60710;SDS011;46554;48.138;8.420;2023-07-29T06:22:50;0.25;;;0.25;;
60710;SDS011;46554;48.138;8.420;2023-07-29T06:25:16;0.28;;;0.28;;
60710;SDS011;46554;48.138;8.420;2023-07-29T06:27:41;0.10;;;0.10;;
60710;SDS011;46554;48.138;8.420;2023-07-29T06:30:09;2.15;;;0.60;;
60710;SDS011;46554;48.138;8.420;2023-07-29T06:32:36;0.10;;;0.10;;
60710;SDS011;46554;48.138;8.420;2023-07-29T06:35:02;0.57;;;0.38;;
60710;SDS011;46554;48.138;8.420;2023-07-29T06:37:29;0.55;;;0.22;;
60710;SDS011;46554;48.138;8.420;2023-07-29T06:39:55;0.45;;;0.45;;
60710;SDS011;46554;48.138;8.420;2023-07-29T06:42:20;0.38;;;0.35;;
60710;SDS011;46554;48.138;8.420;2023-07-29T06:44:48;2.05;;;0.30;;
60710;SDS011;46554;48.138;8.420;2023-07-29T06:47:13;0.10;;;0.10;;
60710;SDS011;46554;48.138;8.420;2023-07-29T06:49:41;0.45;;;0.38;;
60710;SDS011;46554;48.138;8.420;2023-07-29T06:52:07;0.20;;;0.20;;
60710;SDS011;46554;48.138;8.420;2023-07-29T06:54:35;0.65;;;0.25;;
60710;SDS011;46554;48.138;8.420;2023-07-29T06:57:00;0.43;;;0.43;;
60710;SDS011;46554;48.138;8.420;2023-07-29T06:59:26;0.00;;;0.00;;
60710;SDS011;46554;48.138;8.420;2023-07-29T07:01:51;0.00;;;0.00;;
60710;SDS011;46554;48.138;8.420;2023-07-29T07:04:16;0.32;;;0.30;;
60710;SDS011;46554;48.138;8.420;2023-07-29T07:06:44;0.38;;;0.32;;
60710;SDS011;46554;48.138;8.420;2023-07-29T07:09:09;0.00;;;0.00;;
60710;SDS011;46554;48.138;8.420;2023-07-29T07:11:56;0.55;;;0.55;;
60710;SDS011;46554;48.138;8.420;2023-07-29T07:14:28;0.63;;;0.50;;
60710;SDS011;46554;48.138;8.420;2023-07-29T07:16:54;0.52;;;0.28;;
60710;SDS011;46554;48.138;8.420;2023-07-29T07:19:19;5.13;;;0.35;;
60710;SDS011;46554;48.138;8.420;2023-07-29T07:21:47;0.65;;;0.35;;
60710;SDS011;46554;48.138;8.420;2023-07-29T07:24:12;0.25;;;0.15;;
60710;SDS011;46554;48.138;8.420;2023-07-29T07:26:38;0.63;;;0.63;;
60710;SDS011;46554;48.138;8.420;2023-07-29T07:29:05;0.45;;;0.32;;
60710;SDS011;46554;48.138;8.420;2023-07-29T07:31:33;0.52;;;0.30;;
60710;SDS011;46554;48.138;8.420;2023-07-29T07:34:00;0.00;;;0.00;;
60710;SDS011;46554;48.138;8.420;2023-07-29T07:36:27;0.13;;;0.10;;
60710;SDS011;46554;48.138;8.420;2023-07-29T07:38:52;0.35;;;0.35;;
60710;SDS011;46554;48.138;8.420;2023-07-29T07:41:17;0.50;;;0.50;;
60710;SDS011;46554;48.138;8.420;2023-07-29T07:43:51;0.20;;;0.10;;
60710;SDS011;46554;48.138;8.420;2023-07-29T07:46:17;0.20;;;0.20;;
60710;SDS011;46554;48.138;8.420;2023-07-29T07:48:42;0.80;;;0.43;;
60710;SDS011;46554;48.138;8.420;2023-07-29T07:51:11;0.40;;;0.22;;
60710;SDS011;46554;48.138;8.420;2023-07-29T07:53:37;0.00;;;0.00;;
60710;SDS011;46554;48.138;8.420;2023-07-29T07:56:02;1.58;;;0.50;;
60710;SDS011;46554;48.138;8.420;2023-07-29T07:58:28;1.60;;;0.98;;
60710;SDS011;46554;48.138;8.420;2023-07-29T08:01:00;0.10;;;0.10;;
60710;SDS011;46554;48.138;8.420;2023-07-29T08:03:29;0.30;;;0.30;;
60710;SDS011;46554;48.138;8.420;2023-07-29T08:05:57;0.60;;;0.60;;
60710;SDS011;46554;48.138;8.420;2023-07-29T08:08:23;0.50;;;0.50;;
60710;SDS011;46554;48.138;8.420;2023-07-29T08:10:49;0.13;;;0.13;;
60710;SDS011;46554;48.138;8.420;2023-07-29T08:13:16;1.73;;;0.25;;
60710;SDS011;46554;48.138;8.420;2023-07-29T08:15:57;0.55;;;0.30;;
60710;SDS011;46554;48.138;8.420;2023-07-29T08:18:23;0.20;;;0.20;;
60710;SDS011;46554;48.138;8.420;2023-07-29T08:20:55;0.38;;;0.38;;
60710;SDS011;46554;48.138;8.420;2023-07-29T08:23:23;0.60;;;0.10;;
60710;SDS011;46554;48.138;8.420;2023-07-29T08:25:56;2.38;;;1.73;;
60710;SDS011;46554;48.138;8.420;2023-07-29T08:28:33;0.20;;;0.15;;
60710;SDS011;46554;48.138;8.420;2023-07-29T08:31:00;0.55;;;0.52;;
60710;SDS011;46554;48.138;8.420;2023-07-29T08:33:25;0.22;;;0.22;;
60710;SDS011;46554;48.138;8.420;2023-07-29T08:35:51;0.88;;;0.60;;
60710;SDS011;46554;48.138;8.420;2023-07-29T08:38:16;0.25;;;0.25;;
60710;SDS011;46554;48.138;8.420;2023-07-29T08:40:54;1.75;;;0.52;;
60710;SDS011;46554;48.138;8.420;2023-07-29T08:43:22;0.20;;;0.20;;
60710;SDS011;46554;48.138;8.420;2023-07-29T08:45:56;0.22;;;0.22;;
60710;SDS011;46554;48.138;8.420;2023-07-29T08:48:23;1.40;;;0.73;;
60710;SDS011;46554;48.138;8.420;2023-07-29T08:50:59;0.40;;;0.25;;
60710;SDS011;46554;48.138;8.420;2023-07-29T08:53:25;0.28;;;0.28;;
60710;SDS011;46554;48.138;8.420;2023-07-29T08:55:51;0.43;;;0.43;;
60710;SDS011;46554;48.138;8.420;2023-07-29T08:58:18;0.32;;;0.15;;
60710;SDS011;46554;48.138;8.420;2023-07-29T09:00:44;0.10;;;0.10;;
60710;SDS011;46554;48.138;8.420;2023-07-29T09:03:11;0.30;;;0.30;;
60710;SDS011;46554;48.138;8.420;2023-07-29T09:05:39;0.88;;;0.15;;
60710;SDS011;46554;48.138;8.420;2023-07-29T09:08:04;0.35;;;0.30;;
60710;SDS011;46554;48.138;8.420;2023-07-29T09:10:30;0.75;;;0.38;;
60710;SDS011;46554;48.138;8.420;2023-07-29T09:13:00;0.90;;;0.30;;
60710;SDS011;46554;48.138;8.420;2023-07-29T09:15:29;0.40;;;0.28;;
60710;SDS011;46554;48.138;8.420;2023-07-29T09:17:58;0.32;;;0.20;;
60710;SDS011;46554;48.138;8.420;2023-07-29T09:20:24;0.35;;;0.35;;
60710;SDS011;46554;48.138;8.420;2023-07-29T09:22:57;0.45;;;0.45;;
60710;SDS011;46554;48.138;8.420;2023-07-29T09:25:25;0.20;;;0.20;;
60710;SDS011;46554;48.138;8.420;2023-07-29T09:27:51;0.75;;;0.30;;
60710;SDS011;46554;48.138;8.420;2023-07-29T09:30:19;0.28;;;0.28;;
60710;SDS011;46554;48.138;8.420;2023-07-29T09:32:47;0.30;;;0.30;;
60710;SDS011;46554;48.138;8.420;2023-07-29T09:35:12;1.00;;;0.43;;
60710;SDS011;46554;48.138;8.420;2023-07-29T09:37:38;0.10;;;0.10;;
60710;SDS011;46554;48.138;8.420;2023-07-29T09:40:04;0.50;;;0.50;;
60710;SDS011;46554;48.138;8.420;2023-07-29T09:42:31;0.32;;;0.32;;
60710;SDS011;46554;48.138;8.420;2023-07-29T09:44:58;0.47;;;0.40;;
60710;SDS011;46554;48.138;8.420;2023-07-29T09:47:26;0.60;;;0.60;;
60710;SDS011;46554;48.138;8.420;2023-07-29T09:49:52;1.10;;;0.60;;
60710;SDS011;46554;48.138;8.420;2023-07-29T09:52:19;0.20;;;0.20;;
60710;SDS011;46554;48.138;8.420;2023-07-29T09:54:45;0.30;;;0.30;;
60710;SDS011;46554;48.138;8.420;2023-07-29T09:57:14;0.28;;;0.28;;
60710;SDS011;46554;48.138;8.420;2023-07-29T09:59:41;0.10;;;0.10;;
60710;SDS011;46554;48.138;8.420;2023-07-29T10:02:09;0.73;;;0.65;;
60710;SDS011;46554;48.138;8.420;2023-07-29T10:04:40;0.40;;;0.40;;
60710;SDS011;46554;48.138;8.420;2023-07-29T10:07:09;0.70;;;0.70;;
60710;SDS011;46554;48.138;8.420;2023-07-29T10:09:38;0.68;;;0.65;;
60710;SDS011;46554;48.138;8.420;2023-07-29T10:12:04;0.63;;;0.63;;
60710;SDS011;46554;48.138;8.420;2023-07-29T10:14:31;0.93;;;0.93;;
60710;SDS011;46554;48.138;8.420;2023-07-29T10:17:05;3.10;;;1.20;;
60710;SDS011;46554;48.138;8.420;2023-07-29T10:19:33;2.55;;;0.50;;
60710;SDS011;46554;48.138;8.420;2023-07-29T10:21:59;0.82;;;0.57;;
60710;SDS011;46554;48.138;8.420;2023-07-29T10:24:32;1.50;;;0.75;;
60710;SDS011;46554;48.138;8.420;2023-07-29T10:27:01;0.60;;;0.60;;
60710;SDS011;46554;48.138;8.420;2023-07-29T10:29:30;0.65;;;0.65;;
60710;SDS011;46554;48.138;8.420;2023-07-29T10:32:01;0.70;;;0.70;;
60710;SDS011;46554;48.138;8.420;2023-07-29T10:34:30;1.10;;;0.82;;
60710;SDS011;46554;48.138;8.420;2023-07-29T10:36:56;1.55;;;0.95;;
60710;SDS011;46554;48.138;8.420;2023-07-29T10:39:24;0.73;;;0.73;;
60710;SDS011;46554;48.138;8.420;2023-07-29T10:41:56;1.00;;;0.85;;
60710;SDS011;46554;48.138;8.420;2023-07-29T10:47:12;1.35;;;1.08;;
60710;SDS011;46554;48.138;8.420;2023-07-29T10:49:45;1.13;;;1.02;;
60710;SDS011;46554;48.138;8.420;2023-07-29T10:52:27;0.88;;;0.88;;
60710;SDS011;46554;48.138;8.420;2023-07-29T10:54:56;0.35;;;0.35;;
60710;SDS011;46554;48.138;8.420;2023-07-29T10:57:56;0.40;;;0.40;;
60710;SDS011;46554;48.138;8.420;2023-07-29T11:00:15;3.35;;;0.63;;
60710;SDS011;46554;48.138;8.420;2023-07-29T11:02:40;0.52;;;0.52;;
60710;SDS011;46554;48.138;8.420;2023-07-29T11:05:15;1.13;;;0.85;;
60710;SDS011;46554;48.138;8.420;2023-07-29T11:07:43;1.73;;;1.33;;
60710;SDS011;46554;48.138;8.420;2023-07-29T11:10:13;2.42;;;0.70;;
60710;SDS011;46554;48.138;8.420;2023-07-29T11:18:00;1.33;;;1.10;;
60710;SDS011;46554;48.138;8.420;2023-07-29T11:20:27;0.95;;;0.93;;
60710;SDS011;46554;48.138;8.420;2023-07-29T11:22:54;0.75;;;0.75;;
60710;SDS011;46554;48.138;8.420;2023-07-29T11:25:20;0.55;;;0.55;;
60710;SDS011;46554;48.138;8.420;2023-07-29T11:30:33;0.43;;;0.43;;
60710;SDS011;46554;48.138;8.420;2023-07-29T11:33:02;1.35;;;1.25;;
60710;SDS011;46554;48.138;8.420;2023-07-29T11:35:31;1.05;;;0.93;;
60710;SDS011;46554;48.138;8.420;2023-07-29T11:37:57;1.23;;;1.13;;
60710;SDS011;46554;48.138;8.420;2023-07-29T11:40:22;0.63;;;0.63;;
60710;SDS011;46554;48.138;8.420;2023-07-29T11:42:49;0.95;;;0.60;;
60710;SDS011;46554;48.138;8.420;2023-07-29T11:45:17;0.95;;;0.93;;
60710;SDS011;46554;48.138;8.420;2023-07-29T11:47:48;0.82;;;0.82;;
60710;SDS011;46554;48.138;8.420;2023-07-29T11:52:44;0.65;;;0.65;;
60710;SDS011;46554;48.138;8.420;2023-07-29T11:55:13;1.17;;;1.17;;
60710;SDS011;46554;48.138;8.420;2023-07-29T11:57:40;1.63;;;0.90;;
60710;SDS011;46554;48.138;8.420;2023-07-29T12:00:07;0.40;;;0.40;;
60710;SDS011;46554;48.138;8.420;2023-07-29T12:02:36;0.50;;;0.50;;
60710;SDS011;46554;48.138;8.420;2023-07-29T12:05:04;1.05;;;0.68;;
60710;SDS011;46554;48.138;8.420;2023-07-29T12:07:30;0.82;;;0.82;;
60710;SDS011;46554;48.138;8.420;2023-07-29T12:09:55;2.08;;;1.50;;
60710;SDS011;46554;48.138;8.420;2023-07-29T12:12:22;0.82;;;0.70;;
60710;SDS011;46554;48.138;8.420;2023-07-29T12:14:49;2.47;;;0.65;;
60710;SDS011;46554;48.138;8.420;2023-07-29T12:17:15;1.75;;;1.00;;
60710;SDS011;46554;48.138;8.420;2023-07-29T12:19:40;0.75;;;0.75;;
60710;SDS011;46554;48.138;8.420;2023-07-29T12:22:07;0.60;;;0.60;;
60710;SDS011;46554;48.138;8.420;2023-07-29T12:24:35;1.15;;;1.05;;
60710;SDS011;46554;48.138;8.420;2023-07-29T12:27:04;0.93;;;0.93;;
60710;SDS011;46554;48.138;8.420;2023-07-29T12:29:29;1.35;;;1.10;;
60710;SDS011;46554;48.138;8.420;2023-07-29T12:34:25;1.98;;;1.15;;
60710;SDS011;46554;48.138;8.420;2023-07-29T12:36:52;0.77;;;0.77;;
60710;SDS011;46554;48.138;8.420;2023-07-29T12:39:23;1.17;;;1.08;;
60710;SDS011;46554;48.138;8.420;2023-07-29T12:41:53;0.60;;;0.60;;
60710;SDS011;46554;48.138;8.420;2023-07-29T12:44:20;0.65;;;0.65;;
60710;SDS011;46554;48.138;8.420;2023-07-29T12:46:45;0.63;;;0.63;;
60710;SDS011;46554;48.138;8.420;2023-07-29T12:49:16;0.70;;;0.70;;
60710;SDS011;46554;48.138;8.420;2023-07-29T12:51:41;0.50;;;0.50;;
60710;SDS011;46554;48.138;8.420;2023-07-29T12:54:07;0.65;;;0.65;;
60710;SDS011;46554;48.138;8.420;2023-07-29T12:56:32;1.33;;;0.85;;
60710;SDS011;46554;48.138;8.420;2023-07-29T12:58:58;0.63;;;0.63;;
60710;SDS011;46554;48.138;8.420;2023-07-29T13:01:27;0.30;;;0.30;;
60710;SDS011;46554;48.138;8.420;2023-07-29T13:03:53;0.60;;;0.60;;
60710;SDS011;46554;48.138;8.420;2023-07-29T13:06:18;2.20;;;1.65;;
60710;SDS011;46554;48.138;8.420;2023-07-29T13:08:45;0.55;;;0.55;;
60710;SDS011;46554;48.138;8.420;2023-07-29T13:11:10;0.60;;;0.60;;
60710;SDS011;46554;48.138;8.420;2023-07-29T13:13:38;0.43;;;0.43;;
60710;SDS011;46554;48.138;8.420;2023-07-29T13:16:04;0.73;;;0.73;;
60710;SDS011;46554;48.138;8.420;2023-07-29T13:18:30;3.20;;;1.42;;
60710;SDS011;46554;48.138;8.420;2023-07-29T13:20:56;2.40;;;1.20;;
60710;SDS011;46554;48.138;8.420;2023-07-29T13:23:22;3.10;;;0.77;;
60710;SDS011;46554;48.138;8.420;2023-07-29T13:25:47;0.52;;;0.52;;
60710;SDS011;46554;48.138;8.420;2023-07-29T13:28:13;0.88;;;0.85;;
60710;SDS011;46554;48.138;8.420;2023-07-29T13:30:39;1.00;;;0.70;;
60710;SDS011;46554;48.138;8.420;2023-07-29T13:33:05;1.70;;;1.60;;
60710;SDS011;46554;48.138;8.420;2023-07-29T13:35:31;1.88;;;1.25;;
60710;SDS011;46554;48.138;8.420;2023-07-29T13:37:56;0.50;;;0.50;;
60710;SDS011;46554;48.138;8.420;2023-07-29T13:40:24;0.88;;;0.88;;
60710;SDS011;46554;48.138;8.420;2023-07-29T13:42:50;0.90;;;0.90;;
60710;SDS011;46554;48.138;8.420;2023-07-29T13:45:18;0.75;;;0.75;;
60710;SDS011;46554;48.138;8.420;2023-07-29T13:47:43;0.95;;;0.95;;
60710;SDS011;46554;48.138;8.420;2023-07-29T13:50:09;0.45;;;0.45;;
60710;SDS011;46554;48.138;8.420;2023-07-29T13:52:35;0.50;;;0.50;;
60710;SDS011;46554;48.138;8.420;2023-07-29T13:55:01;0.55;;;0.55;;
60710;SDS011;46554;48.138;8.420;2023-07-29T13:57:27;1.17;;;0.82;;
60710;SDS011;46554;48.138;8.420;2023-07-29T13:59:55;1.95;;;0.90;;
60710;SDS011;46554;48.138;8.420;2023-07-29T14:02:20;1.10;;;0.95;;
60710;SDS011;46554;48.138;8.420;2023-07-29T14:04:45;3.17;;;0.75;;
60710;SDS011;46554;48.138;8.420;2023-07-29T14:07:11;0.40;;;0.40;;
60710;SDS011;46554;48.138;8.420;2023-07-29T14:09:38;0.40;;;0.40;;
60710;SDS011;46554;48.138;8.420;2023-07-29T14:12:04;0.30;;;0.30;;
60710;SDS011;46554;48.138;8.420;2023-07-29T14:14:30;0.75;;;0.75;;
60710;SDS011;46554;48.138;8.420;2023-07-29T14:16:56;0.40;;;0.40;;
60710;SDS011;46554;48.138;8.420;2023-07-29T14:19:21;0.35;;;0.35;;
60710;SDS011;46554;48.138;8.420;2023-07-29T14:21:47;0.52;;;0.52;;
60710;SDS011;46554;48.138;8.420;2023-07-29T14:24:15;1.95;;;0.82;;
60710;SDS011;46554;48.138;8.420;2023-07-29T14:26:44;0.85;;;0.75;;
60710;SDS011;46554;48.138;8.420;2023-07-29T14:29:10;0.80;;;0.80;;
60710;SDS011;46554;48.138;8.420;2023-07-29T14:31:35;0.70;;;0.70;;
60710;SDS011;46554;48.138;8.420;2023-07-29T14:34:03;0.63;;;0.57;;
60710;SDS011;46554;48.138;8.420;2023-07-29T14:36:28;0.50;;;0.50;;
60710;SDS011;46554;48.138;8.420;2023-07-29T14:38:53;0.30;;;0.30;;
60710;SDS011;46554;48.138;8.420;2023-07-29T14:41:22;4.05;;;0.60;;
60710;SDS011;46554;48.138;8.420;2023-07-29T14:43:47;2.05;;;1.27;;
60710;SDS011;46554;48.138;8.420;2023-07-29T14:46:12;1.88;;;0.80;;
60710;SDS011;46554;48.138;8.420;2023-07-29T14:48:38;1.23;;;1.13;;
60710;SDS011;46554;48.138;8.420;2023-07-29T14:51:03;1.15;;;0.77;;
60710;SDS011;46554;48.138;8.420;2023-07-29T14:53:33;1.73;;;1.17;;
60710;SDS011;46554;48.138;8.420;2023-07-29T14:55:58;0.65;;;0.65;;
60710;SDS011;46554;48.138;8.420;2023-07-29T14:58:24;0.50;;;0.50;;
60710;SDS011;46554;48.138;8.420;2023-07-29T15:00:50;0.80;;;0.80;;
60710;SDS011;46554;48.138;8.420;2023-07-29T15:03:16;1.58;;;0.63;;
60710;SDS011;46554;48.138;8.420;2023-07-29T15:05:44;0.43;;;0.43;;
60710;SDS011;46554;48.138;8.420;2023-07-29T15:08:09;0.70;;;0.70;;
60710;SDS011;46554;48.138;8.420;2023-07-29T15:10:37;0.90;;;0.57;;
60710;SDS011;46554;48.138;8.420;2023-07-29T15:13:08;0.43;;;0.43;;